Time;durP1;ratioP1;P1;durP2;ratioP2;P2;SDS_P1;SDS_P2;PMS_P1;PMS_P2;Temp;Humidity;BMP_temperature;BMP_pressure;BME280_temperature;BME280_humidity;BME280_pressure;Samples;Min_cycle;Max_cycle;Signal;HPM_P1;HPM_P2
2022/05/28 00:00:26;;;;;;;15.23;7.25;;;;;;;26.86;49.78;100823.69;4164526;28;20034;-68
2022/05/28 00:02:27;;;;;;;13.35;6.70;;;;;;;26.92;49.61;100835.59;4164518;28;20094;-68
2022/05/28 00:04:29;;;;;;;14.70;6.50;;;;;;;26.92;50.25;100830.81;4164457;28;20087;-68
2022/05/28 00:06:32;;;;;;;17.52;7.25;;;;;;;26.90;49.87;100849.16;4162659;28;20041;-68
2022/05/28 00:08:36;;;;;;;14.30;6.85;;;;;;;26.79;49.62;100829.75;4163502;28;20037;-68
2022/05/28 00:10:38;;;;;;;14.40;6.95;;;;;;;26.90;49.77;100838.75;4145717;28;20046;-68
2022/05/28 00:12:39;;;;;;;12.48;6.50;;;;;;;26.91;49.69;100834.78;4146718;28;20084;-68
2022/05/28 00:14:41;;;;;;;9.88;6.32;;;;;;;26.86;49.64;100832.94;4163969;28;20100;-68
2022/05/28 00:16:43;;;;;;;13.32;6.60;;;;;;;26.90;49.65;100835.13;4146542;28;20104;-68
2022/05/28 00:18:45;;;;;;;14.18;6.78;;;;;;;26.90;49.91;100835.13;4165833;28;20049;-66
2022/05/28 00:20:49;;;;;;;13.27;6.70;;;;;;;26.89;49.84;100836.25;4166539;28;20071;-67
2022/05/28 00:22:50;;;;;;;16.43;6.50;;;;;;;26.89;49.80;100836.25;4166433;28;20105;-66
2022/05/28 00:24:52;;;;;;;14.57;6.30;;;;;;;26.90;50.04;100854.78;4166740;28;20332;-66
2022/05/28 00:26:53;;;;;;;14.05;6.88;;;;;;;26.88;49.66;100848.63;4165439;28;20045;-68
2022/05/28 00:28:54;;;;;;;13.20;6.38;;;;;;;26.89;49.69;100844.66;4166390;28;20096;-68
2022/05/28 00:30:56;;;;;;;14.30;6.95;;;;;;;26.89;49.82;100839.06;4167234;28;20514;-66
2022/05/28 00:32:58;;;;;;;12.27;7.25;;;;;;;26.88;49.71;100834.59;4167017;28;20042;-66
2022/05/28 00:34:59;;;;;;;12.60;6.55;;;;;;;26.88;49.83;100827.00;4166759;28;20045;-67
2022/05/28 00:37:04;;;;;;;11.85;6.78;;;;;;;26.87;49.87;100822.53;4148979;28;20522;-66
2022/05/28 00:39:05;;;;;;;15.73;6.88;;;;;;;26.84;49.64;100818.38;4148994;28;20481;-66
2022/05/28 00:41:07;;;;;;;12.13;6.47;;;;;;;26.87;49.48;100830.97;4166391;28;20099;-66
2022/05/28 00:43:09;;;;;;;14.13;6.43;;;;;;;26.84;49.58;100824.00;4165929;28;20100;-66
2022/05/28 00:45:14;;;;;;;11.23;6.20;;;;;;;26.85;49.74;100822.06;4147904;28;20038;-66
2022/05/28 00:47:17;;;;;;;13.25;5.80;;;;;;;26.88;49.71;100812.13;4165787;28;20037;-66
2022/05/28 00:49:27;;;;;;;18.17;6.53;;;;;;;26.86;49.68;100815.28;4166469;28;20416;-66
2022/05/28 00:51:32;;;;;;;14.95;6.20;;;;;;;26.86;49.62;100818.91;4174427;28;20106;-66
2022/05/28 00:53:34;;;;;;;10.55;5.93;;;;;;;26.83;49.58;100811.13;4182225;28;20037;-66
2022/05/28 00:55:36;;;;;;;11.70;6.40;;;;;;;26.85;49.54;100817.25;4165807;28;20439;-66
2022/05/28 00:57:41;;;;;;;10.10;6.28;;;;;;;26.85;49.44;100808.84;4165298;28;20452;-66
2022/05/28 00:59:44;;;;;;;11.27;5.72;;;;;;;26.84;49.38;100812.78;4164788;28;20045;-66
2022/05/28 01:01:50;;;;;;;13.50;5.88;;;;;;;26.83;49.78;100816.75;4165571;28;20103;-66
2022/05/28 01:03:58;;;;;;;12.38;5.85;;;;;;;26.74;49.30;100796.22;4165225;28;20099;-66
2022/05/28 01:06:08;;;;;;;10.80;5.75;;;;;;;26.76;49.41;100799.56;4166403;28;20099;-66
2022/05/28 01:08:32;;;;;;;12.57;6.18;;;;;;;26.77;49.69;100801.22;4165540;28;20436;-66
2022/05/28 01:10:51;;;;;;;11.05;5.88;;;;;;;26.83;49.31;100799.91;4167488;28;20045;-66
2022/05/28 01:12:57;;;;;;;13.52;6.32;;;;;;;26.76;49.45;100781.88;4166014;28;20095;-66
2022/05/28 01:15:05;;;;;;;12.55;5.93;;;;;;;26.84;49.28;100801.53;4165901;28;20045;-66
2022/05/28 01:17:18;;;;;;;12.77;5.88;;;;;;;26.84;49.31;100801.53;4164450;28;20362;-67
2022/05/28 01:19:43;;;;;;;10.95;5.53;;;;;;;26.84;49.39;100783.88;4176507;28;20526;-66
2022/05/28 01:22:20;;;;;;;9.20;5.47;;;;;;;26.83;49.25;100785.03;4165386;28;20041;-66
2022/05/28 01:24:38;;;;;;;13.65;6.22;;;;;;;26.82;49.26;100798.25;4165211;28;20045;-66
2022/05/28 01:26:52;;;;;;;10.20;5.90;;;;;;;26.80;49.54;100799.72;4149839;28;20083;-66
2022/05/28 01:29:01;;;;;;;9.18;5.20;;;;;;;26.81;49.23;100802.22;4171814;28;20033;-66
2022/05/28 01:31:06;;;;;;;10.90;5.72;;;;;;;26.83;49.52;100804.69;4165356;28;20075;-66
2022/05/28 01:33:14;;;;;;;9.88;5.68;;;;;;;26.80;49.55;100806.19;4165027;28;20088;-66
2022/05/28 01:35:18;;;;;;;12.32;5.95;;;;;;;26.78;49.54;100791.63;4165362;28;20038;-67
2022/05/28 01:37:24;;;;;;;9.00;5.40;;;;;;;26.80;49.45;100794.94;4171571;28;20045;-66
2022/05/28 01:39:26;;;;;;;10.50;5.70;;;;;;;26.80;49.49;100789.34;4182418;28;20041;-67
2022/05/28 01:41:31;;;;;;;9.93;5.13;;;;;;;26.79;49.40;100786.84;4181483;28;20037;-67
2022/05/28 01:43:40;;;;;;;;;;;;;;;26.78;49.54;100799.22;4182387;28;20063;-66
2022/05/28 01:45:46;;;;;;;10.55;6.15;;;;;;;26.84;49.31;100790.31;4181557;28;19935;-66
2022/05/28 01:47:53;;;;;;;8.77;5.40;;;;;;;26.83;49.28;100788.66;4169239;28;20045;-67
2022/05/28 01:49:58;;;;;;;13.43;5.55;;;;;;;26.82;49.13;100792.63;4174085;28;20045;-67
2022/05/28 01:52:01;;;;;;;9.27;5.18;;;;;;;26.81;49.27;100792.97;4163759;28;20041;-66
2022/05/28 01:54:07;;;;;;;7.97;5.38;;;;;;;26.79;49.34;100786.84;4163065;28;20063;-67
2022/05/28 01:56:09;;;;;;;10.88;5.75;;;;;;;26.79;49.27;100782.03;4164271;28;20034;-67
2022/05/28 01:58:11;;;;;;;10.00;5.32;;;;;;;26.78;49.19;100780.41;4162355;28;20068;-67
2022/05/28 02:00:13;;;;;;;8.13;5.35;;;;;;;26.78;49.44;100779.56;4168960;28;20088;-67
2022/05/28 02:02:16;;;;;;;11.18;5.32;;;;;;;26.78;49.28;100773.97;4167047;28;20049;-67
2022/05/28 02:04:17;;;;;;;11.30;5.28;;;;;;;26.76;49.12;100782.72;4165039;28;20435;-67
2022/05/28 02:06:19;;;;;;;12.27;5.60;;;;;;;26.77;49.49;100772.31;4163537;28;20041;-68
2022/05/28 02:08:20;;;;;;;9.30;5.43;;;;;;;26.77;49.12;100769.50;4164589;28;20042;-68
2022/05/28 02:10:23;;;;;;;8.80;5.15;;;;;;;26.75;49.23;100758.56;4163571;28;20492;-67
2022/05/28 02:12:30;;;;;;;6.72;4.70;;;;;;;26.77;48.95;100756.28;4168136;28;20095;-67
2022/05/28 02:14:46;;;;;;;8.13;4.57;;;;;;;26.76;49.08;100754.66;4166071;28;20045;-68
2022/05/28 02:16:50;;;;;;;9.52;5.68;;;;;;;26.77;49.11;100752.66;4163932;28;20042;-67
2022/05/28 02:19:02;;;;;;;9.45;5.43;;;;;;;26.74;49.24;100768.16;4164355;28;20384;-67
2022/05/28 02:21:08;;;;;;;8.95;5.35;;;;;;;26.69;49.08;100765.50;4169983;28;20558;-67
2022/05/28 02:23:15;;;;;;;8.32;5.15;;;;;;;26.77;49.26;100772.31;4162360;28;20049;-68
2022/05/28 02:25:34;;;;;;;8.32;4.85;;;;;;;26.65;49.17;100747.66;4160013;28;20046;-67
2022/05/28 02:27:43;;;;;;;9.60;5.45;;;;;;;26.77;49.07;100755.47;4130557;28;20482;-67
2022/05/28 02:29:45;;;;;;;7.13;4.72;;;;;;;26.77;49.20;100744.25;4180972;28;20099;-67
2022/05/28 02:31:52;;;;;;;8.82;5.45;;;;;;;26.68;48.90;100752.63;4181286;28;20098;-68
2022/05/28 02:33:54;;;;;;;8.60;4.93;;;;;;;26.70;49.03;100744.69;4181089;28;20040;-68
2022/05/28 02:35:58;;;;;;;8.20;5.10;;;;;;;26.75;49.03;100744.53;4155496;28;20046;-67
2022/05/28 02:37:59;;;;;;;8.70;5.30;;;;;;;26.74;48.92;100744.88;4164069;28;20555;-67
2022/05/28 02:40:01;;;;;;;9.13;4.75;;;;;;;26.75;48.70;100740.91;4168410;28;20086;-67
2022/05/28 02:42:02;;;;;;;10.07;4.40;;;;;;;26.74;49.14;100731.66;4180581;28;20476;-68
2022/05/28 02:44:04;;;;;;;8.25;4.57;;;;;;;26.73;49.04;100727.22;4176330;28;20098;-67
2022/05/28 02:46:09;;;;;;;9.85;4.63;;;;;;;26.73;49.14;100727.22;4165789;28;20034;-67
2022/05/28 02:48:14;;;;;;;7.63;4.80;;;;;;;26.74;49.03;100723.25;4165670;28;21173;-66
2022/05/28 02:50:15;;;;;;;10.73;4.78;;;;;;;26.74;49.36;100717.63;4149635;28;20038;-66
2022/05/28 02:52:17;;;;;;;7.90;5.03;;;;;;;26.74;49.10;100712.03;4172833;28;20046;-66
2022/05/28 02:54:19;;;;;;;8.40;4.70;;;;;;;26.72;48.81;100705.91;4162697;28;20042;-67
2022/05/28 02:56:23;;;;;;;7.20;4.50;;;;;;;26.63;48.99;100687.41;4161970;28;20098;-67
2022/05/28 02:58:29;;;;;;;7.82;4.60;;;;;;;26.69;49.07;100686.91;4173814;28;20041;-68
2022/05/28 03:00:34;;;;;;;8.32;4.75;;;;;;;26.70;48.65;100705.41;4167240;28;20034;-67
2022/05/28 03:02:35;;;;;;;8.15;4.45;;;;;;;26.75;48.84;100710.03;4166842;28;20049;-68
2022/05/28 03:04:36;;;;;;;9.27;4.72;;;;;;;26.71;48.93;100695.84;4164510;28;20033;-68
2022/05/28 03:06:38;;;;;;;7.78;4.63;;;;;;;26.73;48.57;100690.72;4163763;28;20099;-68
2022/05/28 03:08:39;;;;;;;7.93;4.90;;;;;;;26.73;48.88;100682.31;4163940;28;20042;-68
2022/05/28 03:10:44;;;;;;;9.25;4.78;;;;;;;26.73;48.75;100665.47;4164204;28;20600;-68
2022/05/28 03:12:48;;;;;;;8.52;4.93;;;;;;;26.67;48.85;100633.09;4163951;28;20107;-68
2022/05/28 03:14:49;;;;;;;9.90;4.80;;;;;;;26.73;48.57;100614.94;4179801;28;20106;-68
2022/05/28 03:16:53;;;;;;;12.23;4.85;;;;;;;26.73;48.97;100614.94;4170146;28;20531;-67
2022/05/28 03:18:55;;;;;;;8.88;5.50;;;;;;;26.73;48.65;100606.50;4177718;28;20053;-67
2022/05/28 03:20:59;;;;;;;7.30;4.35;;;;;;;26.73;48.83;100598.09;4176918;28;20053;-68
2022/05/28 03:23:00;;;;;;;7.30;4.45;;;;;;;26.61;48.79;100581.06;4167503;28;20616;-68
2022/05/28 03:25:02;;;;;;;9.07;4.68;;;;;;;26.72;48.58;100613.28;4163675;28;20442;-68
2022/05/28 03:27:06;;;;;;;8.48;4.85;;;;;;;26.72;48.83;100634.91;4164771;28;20096;-68
2022/05/28 03:29:08;;;;;;;7.10;4.18;;;;;;;26.66;48.86;100676.31;4163991;28;20456;-68
2022/05/28 03:31:09;;;;;;;7.32;4.75;;;;;;;26.73;48.81;100737.63;4169051;28;20067;-68
2022/05/28 03:33:11;;;;;;;9.07;4.90;;;;;;;26.73;48.87;100766.50;4180388;28;20036;-68
2022/05/28 03:35:13;;;;;;;9.52;4.40;;;;;;;26.66;48.81;100712.00;4174320;28;20034;-68
2022/05/28 03:37:14;;;;;;;8.68;4.95;;;;;;;26.71;48.68;100667.78;4164590;28;20041;-68
2022/05/28 03:39:15;;;;;;;8.60;4.88;;;;;;;26.67;48.69;100649.94;4164689;28;20095;-68
2022/05/28 03:41:20;;;;;;;8.05;4.30;;;;;;;26.62;48.33;100664.13;4171593;28;20103;-68
2022/05/28 03:43:22;;;;;;;7.95;4.40;;;;;;;26.71;48.55;100678.16;4166721;28;20439;-68
2022/05/28 03:45:27;;;;;;;7.35;4.50;;;;;;;26.63;48.80;100671.38;4163669;28;20365;-68
2022/05/28 03:47:33;;;;;;;6.72;4.30;;;;;;;26.71;48.66;100667.78;4162926;28;20183;-68
2022/05/28 03:49:37;;;;;;;7.60;4.20;;;;;;;26.71;48.58;100664.13;4163773;28;20504;-68
2022/05/28 03:51:39;;;;;;;9.05;5.20;;;;;;;26.60;48.74;100627.13;4163559;28;20455;-68
2022/05/28 03:53:40;;;;;;;6.88;4.35;;;;;;;26.69;48.93;100636.38;4165852;28;20108;-67
2022/05/28 03:55:42;;;;;;;9.27;4.68;;;;;;;26.68;48.67;100626.31;4167198;28;20053;-68
2022/05/28 03:57:46;;;;;;;7.63;4.43;;;;;;;26.47;48.86;100560.75;4166341;28;20046;-68
2022/05/28 03:59:47;;;;;;;7.78;4.65;;;;;;;26.69;48.63;100604.69;4167006;28;20111;-68
2022/05/28 04:01:48;;;;;;;6.35;4.40;;;;;;;26.68;48.62;100629.13;4165966;28;20090;-67
2022/05/28 04:03:50;;;;;;;7.78;4.10;;;;;;;26.68;48.48;100645.97;4165588;28;20045;-67
2022/05/28 04:05:51;;;;;;;7.10;4.13;;;;;;;26.69;48.66;100607.50;4164758;28;20455;-67
2022/05/28 04:07:56;;;;;;;6.13;4.53;;;;;;;26.63;48.77;100606.84;4166226;28;20111;-68
2022/05/28 04:09:57;;;;;;;6.80;4.10;;;;;;;26.67;48.47;100627.47;4169075;28;20045;-67
2022/05/28 04:11:59;;;;;;;6.80;4.78;;;;;;;26.69;48.63;100618.72;4168432;28;20060;-67
2022/05/28 04:14:00;;;;;;;7.95;4.60;;;;;;;26.66;48.52;100603.34;4169507;28;20033;-67
2022/05/28 04:16:03;;;;;;;7.32;4.43;;;;;;;26.63;48.72;100590.00;4168735;28;20428;-66
2022/05/28 04:18:08;;;;;;;6.82;4.57;;;;;;;26.66;48.66;100591.31;4170072;28;20053;-68
2022/05/28 04:20:11;;;;;;;6.45;4.50;;;;;;;26.67;48.57;100588.19;4171778;28;20092;-66
2022/05/28 04:22:13;;;;;;;9.38;4.60;;;;;;;26.68;48.26;100597.44;4180554;28;20417;-67
2022/05/28 04:24:17;;;;;;;7.70;4.15;;;;;;;26.67;48.52;100609.81;4184702;28;20552;-67
2022/05/28 04:26:19;;;;;;;7.03;4.28;;;;;;;26.65;48.38;100612.94;4168865;28;20045;-67
2022/05/28 04:28:20;;;;;;;5.88;4.30;;;;;;;26.66;48.30;100608.97;4167484;28;20099;-67
2022/05/28 04:30:22;;;;;;;7.10;4.13;;;;;;;26.66;48.46;100603.34;4167344;28;20370;-68
2022/05/28 04:32:23;;;;;;;7.18;4.45;;;;;;;26.67;48.47;100609.81;4166709;28;20038;-67
2022/05/28 04:34:25;;;;;;;7.05;4.05;;;;;;;26.55;48.41;100596.41;4168372;28;20107;-67
2022/05/28 04:36:29;;;;;;;8.27;4.32;;;;;;;26.66;48.58;100620.19;4170668;28;20086;-67
2022/05/28 04:38:34;;;;;;;7.00;4.45;;;;;;;26.66;48.66;100624.97;4183390;28;20041;-68
2022/05/28 04:40:38;;;;;;;7.32;4.65;;;;;;;26.66;48.68;100624.97;4184178;28;20526;-67
2022/05/28 04:42:40;;;;;;;;;;;;;;;26.63;48.54;100626.47;4174465;28;20038;-67
2022/05/28 04:44:41;;;;;;;6.82;4.00;;;;;;;26.69;48.45;100630.78;4147410;28;19917;-66
2022/05/28 04:46:43;;;;;;;7.65;4.05;;;;;;;26.69;48.41;100627.16;4166420;28;20091;-67
2022/05/28 04:48:44;;;;;;;5.97;4.35;;;;;;;26.66;48.57;100625.81;4149967;28;20038;-68
2022/05/28 04:50:46;;;;;;;7.80;4.10;;;;;;;26.68;48.54;100623.50;4167277;28;20087;-66
2022/05/28 04:52:47;;;;;;;7.40;4.00;;;;;;;26.67;48.34;100623.84;4166608;28;20049;-67
2022/05/28 04:54:52;;;;;;;5.53;3.70;;;;;;;26.66;48.25;100627.78;4165574;28;20095;-69
2022/05/28 04:56:53;;;;;;;8.57;4.50;;;;;;;26.65;48.43;100612.94;4166272;28;20378;-68
2022/05/28 04:58:58;;;;;;;6.18;3.88;;;;;;;26.65;48.57;100618.53;4166364;28;20037;-69
2022/05/28 05:01:00;;;;;;;6.97;4.20;;;;;;;26.65;48.41;100620.53;4166244;28;20107;-68
2022/05/28 05:03:04;;;;;;;6.35;3.67;;;;;;;26.57;48.14;100599.72;4166396;28;20099;-67
2022/05/28 05:05:11;;;;;;;8.43;3.97;;;;;;;26.60;48.34;100593.44;4147740;28;20041;-67
2022/05/28 05:07:13;;;;;;;7.07;3.92;;;;;;;26.64;48.65;100600.06;4181575;28;20040;-67
2022/05/28 05:09:14;;;;;;;7.00;3.78;;;;;;;26.60;48.47;100596.25;4174795;28;20037;-67
2022/05/28 05:11:18;;;;;;;6.40;3.92;;;;;;;26.65;48.20;100607.31;4166348;28;20469;-67
2022/05/28 05:13:20;;;;;;;5.32;3.45;;;;;;;26.55;48.41;100579.59;4166160;28;20037;-67
2022/05/28 05:15:24;;;;;;;7.22;3.90;;;;;;;26.65;48.38;100596.09;4166448;28;20091;-68
2022/05/28 05:17:26;;;;;;;5.30;4.00;;;;;;;26.63;48.31;100598.41;4164114;28;20037;-68
2022/05/28 05:19:30;;;;;;;6.57;3.72;;;;;;;26.64;48.34;100600.06;4170014;28;20032;-68
2022/05/28 05:21:34;;;;;;;5.55;3.58;;;;;;;26.64;48.29;100594.44;4170867;28;20428;-68
2022/05/28 05:23:38;;;;;;;6.97;4.57;;;;;;;26.64;48.33;100583.22;4166982;28;20037;-68
2022/05/28 05:25:40;;;;;;;5.77;3.83;;;;;;;26.64;48.44;100586.03;4167831;28;20076;-68
2022/05/28 05:27:42;;;;;;;5.45;3.95;;;;;;;26.59;48.32;100580.56;4166977;28;20345;-67
2022/05/28 05:29:44;;;;;;;6.85;3.65;;;;;;;26.64;48.34;100582.41;4148881;28;20049;-68
2022/05/28 05:31:51;;;;;;;4.72;3.53;;;;;;;26.62;48.50;100577.13;4165602;28;20090;-68
2022/05/28 05:33:53;;;;;;;6.75;3.92;;;;;;;26.61;48.32;100578.25;4148990;28;20103;-68
2022/05/28 05:35:54;;;;;;;7.20;3.80;;;;;;;26.63;48.14;100586.38;4163883;28;20442;-68
2022/05/28 05:38:05;;;;;;;5.85;3.92;;;;;;;26.62;48.54;100579.94;4162364;28;20068;-68
2022/05/28 05:40:08;;;;;;;5.30;3.60;;;;;;;26.62;48.24;100585.53;4150826;28;20042;-66
2022/05/28 05:42:10;;;;;;;5.13;3.42;;;;;;;26.63;48.21;100570.34;4169558;28;20071;-68
2022/05/28 05:44:14;;;;;;;5.68;3.58;;;;;;;26.62;48.37;100574.31;4167190;28;20045;-65
2022/05/28 05:46:18;;;;;;;5.93;3.65;;;;;;;26.62;48.23;100577.13;4166617;28;20045;-68
2022/05/28 05:48:20;;;;;;;6.35;4.75;;;;;;;26.62;48.33;100571.50;4165878;28;20566;-67
2022/05/28 05:50:26;;;;;;;5.05;3.40;;;;;;;26.61;47.99;100562.25;4174901;28;20040;-68
2022/05/28 05:52:27;;;;;;;5.68;3.58;;;;;;;26.61;48.19;100567.03;4152469;28;22679;-67
2022/05/28 05:54:34;;;;;;;5.28;3.50;;;;;;;26.59;48.35;100563.75;4174041;28;20100;-67
2022/05/28 05:56:35;;;;;;;6.32;3.63;;;;;;;26.62;48.25;100557.47;4164314;28;20045;-67
2022/05/28 05:58:39;;;;;;;5.15;3.55;;;;;;;26.61;48.48;100567.84;4165001;28;20115;-67
2022/05/28 06:00:41;;;;;;;5.78;3.92;;;;;;;26.61;48.31;100567.03;4170018;28;20041;-66
2022/05/28 06:02:43;;;;;;;5.57;3.47;;;;;;;26.57;48.43;100555.66;4169106;28;20049;-66
2022/05/28 06:04:44;;;;;;;5.03;3.38;;;;;;;26.62;48.36;100557.47;4150874;28;20088;-67
2022/05/28 06:06:48;;;;;;;5.60;3.50;;;;;;;26.62;48.10;100551.88;4165478;28;20103;-66
2022/05/28 06:08:50;;;;;;;6.75;3.42;;;;;;;26.55;48.43;100541.13;4166729;28;20091;-66
2022/05/28 06:10:53;;;;;;;5.10;3.30;;;;;;;26.61;48.30;100550.19;4162357;28;20041;-67
2022/05/28 06:12:55;;;;;;;7.80;4.00;;;;;;;26.62;48.53;100551.88;4161964;28;20924;-68
2022/05/28 06:14:56;;;;;;;5.57;3.30;;;;;;;26.60;48.05;100548.53;4145639;28;20034;-68
2022/05/28 06:16:58;;;;;;;6.05;3.83;;;;;;;26.60;48.41;100549.38;4170981;28;20040;-67
2022/05/28 06:19:01;;;;;;;4.97;3.60;;;;;;;26.55;48.28;100537.50;4182106;28;20455;-67
2022/05/28 06:21:06;;;;;;;5.97;3.70;;;;;;;26.61;48.35;100541.78;4181191;28;20037;-67
2022/05/28 06:23:13;;;;;;;4.63;3.30;;;;;;;26.60;48.10;100537.31;4141931;28;20104;-68
2022/05/28 06:25:14;;;;;;;6.00;3.45;;;;;;;26.60;48.24;100537.31;4168131;28;20041;-68
2022/05/28 06:27:16;;;;;;;4.63;2.90;;;;;;;26.59;47.90;100536.50;4161559;28;20041;-67
2022/05/28 06:29:17;;;;;;;4.90;3.17;;;;;;;26.60;48.31;100528.91;4179272;28;20045;-68
2022/05/28 06:31:18;;;;;;;5.22;3.28;;;;;;;26.53;48.16;100526.59;4181578;28;20139;-67
2022/05/28 06:33:22;;;;;;;5.57;3.58;;;;;;;26.59;48.33;100535.69;4162429;28;20095;-67
2022/05/28 06:35:29;;;;;;;5.93;3.60;;;;;;;26.59;47.94;100530.06;4181429;28;20050;-66
2022/05/28 06:37:30;;;;;;;4.30;3.03;;;;;;;26.56;48.08;100537.16;4173649;28;20266;-68
2022/05/28 06:39:34;;;;;;;6.07;3.25;;;;;;;26.59;48.31;100544.91;4164150;28;20033;-68
2022/05/28 06:41:35;;;;;;;4.53;3.45;;;;;;;26.59;48.17;100539.31;4166199;28;20115;-68
2022/05/28 06:43:37;;;;;;;5.25;3.15;;;;;;;26.60;48.04;100548.53;4158229;28;20144;-67
2022/05/28 06:45:43;;;;;;;5.38;3.40;;;;;;;26.60;48.26;100554.16;4149872;28;20076;-67
2022/05/28 06:47:46;;;;;;;5.18;3.40;;;;;;;26.58;48.23;100539.66;4165198;28;20041;-67
2022/05/28 06:51:01;;;;;;;5.65;3.50;;;;;;;26.59;48.28;100544.09;4146297;28;20042;-67
2022/05/28 06:52:08;;;;;;;3.83;2.60;;;;;;;26.58;48.39;100534.03;4168680;28;20419;-68
2022/05/28 06:54:10;;;;;;;4.10;2.97;;;;;;;26.57;48.31;100530.41;4181036;28;20037;-67
2022/05/28 06:56:12;;;;;;;4.18;3.17;;;;;;;26.56;48.32;100525.09;4181363;28;20044;-68
2022/05/28 06:58:17;;;;;;;4.82;3.30;;;;;;;26.52;48.18;100524.09;4162659;28;20046;-67
2022/05/28 07:00:21;;;;;;;4.80;3.00;;;;;;;26.57;48.18;100532.34;4178624;28;20041;-68
2022/05/28 07:02:23;;;;;;;6.32;2.88;;;;;;;26.56;48.07;100530.72;4164151;28;20056;-67
2022/05/28 07:04:26;;;;;;;3.95;2.80;;;;;;;26.57;48.18;100527.59;4164088;28;20095;-65
2022/05/28 07:06:29;;;;;;;4.78;3.20;;;;;;;26.56;48.37;100525.94;4164928;28;20064;-66
2022/05/28 07:08:30;;;;;;;3.38;2.80;;;;;;;26.57;48.19;100526.75;4130902;28;20093;-66
2022/05/28 07:10:32;;;;;;;6.22;3.30;;;;;;;26.50;48.22;100509.59;4164954;28;20034;-67
2022/05/28 07:12:33;;;;;;;3.63;2.95;;;;;;;26.57;48.31;100523.94;4171294;28;20095;-68
2022/05/28 07:14:35;;;;;;;4.43;2.83;;;;;;;26.54;48.14;100513.41;4181177;28;20041;-67
2022/05/28 07:16:42;;;;;;;4.25;3.03;;;;;;;26.52;48.03;100501.66;4181899;28;20041;-70
2022/05/28 07:18:44;;;;;;;3.65;3.20;;;;;;;26.52;48.22;100513.72;4180745;28;20676;-68
2022/05/28 07:20:45;;;;;;;5.22;3.38;;;;;;;26.55;48.25;100515.03;4174569;28;20119;-67
2022/05/28 07:22:47;;;;;;;4.25;2.90;;;;;;;26.56;48.34;100505.47;4167473;28;20435;-67
2022/05/28 07:24:57;;;;;;;4.45;3.03;;;;;;;26.52;48.25;100502.47;4180244;28;20041;-67
2022/05/28 07:26:59;;;;;;;6.18;3.50;;;;;;;26.48;48.37;100501.53;4180370;28;20106;-68
2022/05/28 07:29:00;;;;;;;3.58;2.63;;;;;;;26.53;47.92;100500.53;4183914;28;20048;-66
2022/05/28 07:31:07;;;;;;;4.13;3.13;;;;;;;26.55;48.40;100498.22;4183945;28;20557;-67
2022/05/28 07:33:09;;;;;;;4.85;3.10;;;;;;;26.34;48.18;100464.31;4184014;28;20500;-67
2022/05/28 07:35:11;;;;;;;4.40;3.00;;;;;;;26.49;48.18;100491.94;4153007;28;20096;-68
2022/05/28 07:37:13;;;;;;;5.47;3.10;;;;;;;26.54;48.02;100516.19;4176351;28;20045;-67
2022/05/28 07:39:18;;;;;;;5.10;2.72;;;;;;;26.54;48.29;100505.81;4183832;28;20053;-68
2022/05/28 07:41:26;;;;;;;5.38;3.15;;;;;;;26.46;48.15;100481.38;4172575;28;20107;-67
2022/05/28 07:43:30;;;;;;;4.88;2.90;;;;;;;26.48;48.26;100481.03;4167897;28;20045;-67
2022/05/28 07:45:36;;;;;;;5.05;3.08;;;;;;;26.30;48.14;100447.34;4167694;28;20047;-66
2022/05/28 07:47:43;;;;;;;6.00;2.83;;;;;;;26.54;48.15;100488.16;4175500;28;20037;-67
2022/05/28 07:49:45;;;;;;;4.47;2.72;;;;;;;26.54;48.05;100476.91;4183434;28;20488;-67
2022/05/28 07:51:49;;;;;;;3.80;2.60;;;;;;;26.53;48.13;100472.47;4177774;28;20045;-66
2022/05/28 07:53:54;;;;;;;5.20;2.78;;;;;;;26.54;48.02;100476.91;4166881;28;20046;-67
2022/05/28 07:55:55;;;;;;;3.28;2.40;;;;;;;26.53;48.12;100478.91;4167148;28;20045;-67
2022/05/28 07:58:12;;;;;;;5.25;2.85;;;;;;;26.53;47.92;100486.50;4166330;28;20037;-66
2022/05/28 08:00:14;;;;;;;4.20;2.85;;;;;;;26.52;48.16;100484.81;4167137;28;20435;-66
2022/05/28 08:02:15;;;;;;;3.42;2.40;;;;;;;26.53;47.98;100483.69;4167383;28;20029;-67
2022/05/28 08:04:17;;;;;;;6.50;3.38;;;;;;;26.53;48.26;100486.50;4149633;28;20034;-67
2022/05/28 08:06:19;;;;;;;4.10;2.78;;;;;;;26.52;48.17;100484.81;4166169;28;20049;-67
2022/05/28 08:08:23;;;;;;;4.47;2.85;;;;;;;26.52;48.32;100490.44;4166183;28;20079;-66
2022/05/28 08:10:24;;;;;;;3.73;2.53;;;;;;;26.52;48.37;100487.63;4166542;28;20041;-67
2022/05/28 08:12:29;;;;;;;4.15;2.85;;;;;;;26.45;48.24;100473.28;4166979;28;20041;-67
2022/05/28 08:14:35;;;;;;;4.30;3.03;;;;;;;26.48;48.34;100467.84;4167076;28;20033;-67
2022/05/28 08:16:40;;;;;;;5.38;3.17;;;;;;;26.52;48.28;100479.22;4166174;28;20045;-67
2022/05/28 08:18:41;;;;;;;3.38;2.58;;;;;;;26.48;48.06;100472.59;4166141;28;20049;-67
2022/05/28 08:23:09;;;;;;;4.47;2.97;;;;;;;26.53;48.12;100486.50;4167457;28;20088;-67
2022/05/28 08:25:10;;;;;;;3.28;2.40;;;;;;;26.51;48.39;100489.63;4166418;28;20029;-68
2022/05/28 08:27:14;;;;;;;4.65;2.67;;;;;;;26.51;48.16;100491.59;4165375;28;20080;-68
2022/05/28 08:29:15;;;;;;;3.90;2.63;;;;;;;26.50;48.41;100484.34;4165998;28;20053;-68
2022/05/28 08:31:18;;;;;;;4.90;3.05;;;;;;;26.51;48.43;100488.78;4166700;28;20758;-68
2022/05/28 08:33:23;;;;;;;4.70;2.75;;;;;;;26.49;48.04;100497.53;4166802;28;20092;-68
2022/05/28 08:35:24;;;;;;;3.85;2.60;;;;;;;26.50;48.19;100495.56;4166851;28;20045;-68
2022/05/28 08:37:29;;;;;;;3.55;2.60;;;;;;;26.41;48.18;100483.47;4149117;28;20042;-69
2022/05/28 08:39:30;;;;;;;3.78;2.67;;;;;;;26.50;48.29;100495.56;4177476;28;20029;-68
2022/05/28 08:41:52;;;;;;;3.72;2.53;;;;;;;26.42;48.35;100482.31;4179544;28;20083;-68
2022/05/28 08:44:04;;;;;;;4.53;2.83;;;;;;;26.49;48.03;100508.78;4182969;28;20037;-68
2022/05/28 08:46:10;;;;;;;2.80;2.50;;;;;;;26.50;48.40;100512.41;4182992;28;20041;-68
2022/05/28 08:48:17;;;;;;;3.00;2.70;;;;;;;26.49;48.47;100513.56;4182668;28;20106;-68
2022/05/28 08:50:19;;;;;;;3.45;2.28;;;;;;;26.48;48.25;100501.53;4182821;28;20106;-68
2022/05/28 08:52:23;;;;;;;4.03;2.78;;;;;;;26.50;48.44;100515.22;4163088;28;20042;-68
2022/05/28 08:54:37;;;;;;;3.72;2.70;;;;;;;26.50;48.09;100509.59;4165947;28;20037;-68
2022/05/28 08:56:39;;;;;;;4.45;2.83;;;;;;;26.50;47.93;100515.22;4166066;28;20041;-68
2022/05/28 08:58:42;;;;;;;4.60;2.90;;;;;;;26.50;48.43;100520.81;4166389;28;20045;-68
2022/05/28 09:01:11;;;;;;;3.53;2.42;;;;;;;26.50;48.16;100532.03;4165752;28;20045;-68
2022/05/28 09:03:17;;;;;;;3.60;2.72;;;;;;;26.48;48.33;100529.56;4165701;28;20045;-68
2022/05/28 09:05:37;;;;;;;3.47;2.50;;;;;;;26.49;48.11;100530.41;4171983;28;20036;-68
2022/05/28 09:07:38;;;;;;;3.35;2.55;;;;;;;26.49;48.17;100534.03;4182927;28;20090;-68
2022/05/28 09:09:53;;;;;;;6.20;2.85;;;;;;;26.48;48.24;100537.13;4165254;28;20125;-68
2022/05/28 09:12:07;;;;;;;3.25;2.58;;;;;;;26.44;48.41;100539.81;4182780;28;20037;-68
2022/05/28 09:14:14;;;;;;;2.53;2.28;;;;;;;26.43;48.13;100531.66;4167862;28;20111;-68
2022/05/28 09:16:36;;;;;;;3.50;2.60;;;;;;;26.46;48.41;100545.06;4164960;28;20049;-68
2022/05/28 09:18:41;;;;;;;4.35;2.45;;;;;;;26.46;48.13;100542.25;4166228;28;20374;-68
2022/05/28 09:20:43;;;;;;;5.60;2.53;;;;;;;26.47;47.92;100543.91;4167179;28;20103;-69
2022/05/28 09:22:48;;;;;;;3.75;2.45;;;;;;;26.31;48.35;100519.13;4166185;28;20077;-68
2022/05/28 09:24:49;;;;;;;4.47;2.78;;;;;;;26.44;48.07;100550.19;4167495;28;20083;-68
2022/05/28 09:27:00;;;;;;;5.18;2.38;;;;;;;26.40;48.15;100540.75;4166432;28;20038;-68
2022/05/28 09:29:17;;;;;;;2.75;2.30;;;;;;;26.36;47.89;100538.59;4167450;28;20084;-68
2022/05/28 09:31:38;;;;;;;3.67;2.35;;;;;;;26.46;48.04;100542.25;4168334;28;20118;-67
2022/05/28 09:33:51;;;;;;;3.15;2.50;;;;;;;26.45;47.96;100546.22;4168332;28;20041;-68
2022/05/28 09:35:55;;;;;;;4.75;2.58;;;;;;;26.45;48.27;100538.63;4167846;28;20041;-67
2022/05/28 09:38:13;;;;;;;4.60;2.50;;;;;;;26.45;48.05;100540.63;4166484;28;20049;-68
2022/05/28 09:40:42;;;;;;;4.38;2.28;;;;;;;26.45;48.27;100535.00;4165444;28;20100;-68